Time;durP1;ratioP1;P1;durP2;ratioP2;P2;SDS_P1;SDS_P2;PMS_P1;PMS_P2;Temp;Humidity;BMP_temperature;BMP_pressure;BME280_temperature;BME280_humidity;BME280_pressure;Samples;Min_cycle;Max_cycle;Signal;HPM_P1;HPM_P2
2022/05/22 12:30:11;;;;;;;;;;;;;;;18.75;47.41;100393.28;6118233;22;4949116;-89
2022/05/22 12:46:07;;;;;;;;;;;;;;;18.99;49.01;100384.28;6196808;23;625;-89
2022/05/22 12:48:48;;;;;;;;;;;;;;;19.04;48.07;100384.09;6266446;22;1831;-88
2022/05/22 13:00:11;;;;;;;;;;;;;;;19.31;45.41;100374.34;6255017;22;664;-89
2022/05/22 13:09:18;;;;;;;;;;;;;;;19.76;44.96;100349.38;6268051;22;2031;-89
2022/05/22 13:12:02;;;;;;;;;;;;;;;19.54;44.53;100347.06;6260418;22;1451;-89
2022/05/22 13:18:11;;;;;;;;;;;;;;;;;;;;;
2022/05/22 13:20:48;;;;;;;;;;;;;;;22.78;41.83;100324.34;6161643;23;1310;-90
2022/05/22 13:26:32;;;;;;;;;;;;;;;25.73;33.43;100329.69;6254683;23;612;-90
2022/05/22 13:29:07;;;;;;;;;;;;;;;25.81;31.30;100325.75;6254907;22;1314;-92
2022/05/22 13:31:54;;;;;;;;;;;;;;;27.02;29.12;100321.72;6223475;23;1328;-90
2022/05/22 13:34:20;;;;;;;;;;;;;;;27.88;28.51;100306.63;6223162;23;1243;-90
2022/05/22 13:36:53;;;;;;;;;;;;;;;29.09;28.40;100301.53;6223134;22;1251;-90
2022/05/22 13:39:24;;;;;;;;;;;;;;;30.34;26.06;100312.66;6225509;23;1340;-91
2022/05/22 13:42:29;;;;;;;;;;;;;;;29.38;26.52;100313.44;6222537;23;1321;-91
2022/05/22 13:45:36;;;;;;;;;;;;;;;29.88;25.54;100313.88;6247181;23;1091;-89
2022/05/22 13:48:39;;;;;;;;;;;;;;;29.46;26.20;100306.53;6216716;23;1939;-89
2022/05/22 14:04:18;;;;;;;;;;;;;;;26.51;28.84;100296.59;6309280;22;794;-89
2022/05/22 14:07:20;;;;;;;;;;;;;;;25.19;31.12;100295.50;6309504;22;1244;-88
2022/05/22 14:09:45;;;;;;;;;;;;;;;24.18;34.43;100290.97;6282631;22;1158;-90
2022/05/22 14:12:23;;;;;;;;;;;;;;;23.41;33.87;100288.47;6283155;22;1225;-90
2022/05/22 14:14:52;;;;;;;;;;;;;;;23.48;35.04;100290.59;6282700;22;1335;-89
2022/05/22 14:17:28;;;;;;;;;;;;;;;23.12;36.00;100289.97;6281922;22;1338;-90
2022/05/22 14:20:03;;;;;;;;;;;;;;;22.69;36.22;100284.66;6282837;22;1269;-89
2022/05/22 14:22:51;;;;;;;;;;;;;;;22.81;35.63;100278.94;6283000;22;1275;-89
2022/05/22 14:25:44;;;;;;;;;;;;;;;23.98;35.30;100279.09;6283216;22;1281;-91
2022/05/22 14:40:35;;;;;;;;;;;;;;;23.56;36.38;100264.44;6216150;23;1180;-90
2022/05/22 14:46:13;;;;;;;;;;;;;;;;;;;;;
2022/05/22 14:49:01;;;;;;;;;;;;;;;22.35;37.31;100256.47;6215958;23;1936;-90
2022/05/22 14:52:23;;;;;;;;;;;;;;;;;;;;;
2022/05/22 14:54:53;;;;;;;;;;;;;;;22.82;36.26;100255.44;6211945;23;1428;-92
2022/05/22 14:57:21;;;;;;;;;;;;;;;22.83;34.07;100243.13;6192522;23;1311;-91
2022/05/22 14:59:48;;;;;;;;;;;;;;;23.21;35.61;100239.44;6193741;23;1331;-92
2022/05/22 15:02:32;;;;;;;;;;;;;;;23.30;35.86;100242.81;6190726;23;1220;-92
2022/05/22 15:05:06;;;;;;;;;;;;;;;23.54;36.16;100245.25;6190472;23;1176;-91
2022/05/22 15:07:57;;;;;;;;;;;;;;;22.88;35.48;100252.00;6215546;23;1881;-90
2022/05/22 15:10:31;;;;;;;;;;;;;;;22.95;35.28;100246.56;6191769;23;1370;-91
2022/05/22 15:13:03;;;;;;;;;;;;;;;22.32;37.08;100248.00;6193086;23;1530;-92
2022/05/22 15:15:33;;;;;;;;;;;;;;;22.27;36.28;100255.50;6218198;23;894;-90
2022/05/22 15:18:01;;;;;;;;;;;;;;;21.99;38.01;100246.50;6215607;23;1131;-90
2022/05/22 15:20:28;;;;;;;;;;;;;;;21.69;38.50;100248.94;6188850;23;1274;-90
2022/05/22 15:25:44;;;;;;;;;;;;;;;22.44;36.70;100245.91;6217401;23;637;-91
2022/05/22 15:28:23;;;;;;;;;;;;;;;22.56;35.65;100236.56;6191681;23;1872;-90
2022/05/22 15:30:50;;;;;;;;;;;;;;;22.46;37.42;100223.19;6189645;23;1202;-90
2022/05/22 15:33:28;;;;;;;;;;;;;;;22.92;34.37;100227.75;6188941;23;1180;-91
2022/05/22 15:36:05;;;;;;;;;;;;;;;22.99;34.14;100225.09;6188379;23;1183;-89
2022/05/22 15:38:32;;;;;;;;;;;;;;;23.15;34.50;100222.19;6188629;23;1317;-90
2022/05/22 15:40:59;;;;;;;;;;;;;;;22.72;35.64;100223.34;6188518;23;1156;-91
2022/05/22 15:43:30;;;;;;;;;;;;;;;22.98;34.20;100223.47;6188094;23;1268;-91
2022/05/22 15:46:12;;;;;;;;;;;;;;;23.16;34.39;100215.41;6215651;23;810;-89
2022/05/22 15:51:35;;;;;;;;;;;;;;;22.49;36.31;100208.53;6214800;23;627;-89
2022/05/22 15:54:00;;;;;;;;;;;;;;;22.65;34.42;100204.47;6215012;23;890;-91
2022/05/22 15:56:25;;;;;;;;;;;;;;;23.07;35.00;100222.44;6215155;23;874;-90
2022/05/22 15:58:51;;;;;;;;;;;;;;;23.07;34.07;100200.09;6215157;23;1285;-91
2022/05/22 16:01:18;;;;;;;;;;;;;;;22.55;36.21;100202.28;6215911;23;857;-91
2022/05/22 16:03:44;;;;;;;;;;;;;;;22.75;35.05;100205.91;6188441;23;1280;-91
2022/05/22 16:06:12;;;;;;;;;;;;;;;23.25;35.02;100210.41;6215914;23;814;-91
2022/05/22 16:08:37;;;;;;;;;;;;;;;23.52;34.65;100208.50;6215661;23;1885;-91
2022/05/22 16:11:02;;;;;;;;;;;;;;;23.17;34.35;100210.66;6189512;23;1265;-91
2022/05/22 16:13:27;;;;;;;;;;;;;;;22.40;35.39;100202.38;6217173;23;984;-91
2022/05/22 16:15:52;;;;;;;;;;;;;;;22.10;35.59;100194.59;6189817;23;1303;-90
2022/05/22 16:18:18;;;;;;;;;;;;;;;21.63;38.29;100202.22;6188874;23;1258;-91
2022/05/22 16:20:43;;;;;;;;;;;;;;;21.71;38.13;100195.63;6217926;23;967;-91
2022/05/22 16:23:09;;;;;;;;;;;;;;;22.55;37.27;100193.09;6217392;23;809;-91
2022/05/22 16:25:34;;;;;;;;;;;;;;;22.51;37.38;100195.84;6216692;23;790;-92
2022/05/22 16:27:59;;;;;;;;;;;;;;;22.99;37.53;100191.59;6190016;23;1940;-90
2022/05/22 16:30:24;;;;;;;;;;;;;;;22.67;37.30;100187.38;6216237;23;992;-90
2022/05/22 16:32:50;;;;;;;;;;;;;;;22.74;37.52;100190.31;6189894;23;1299;-91
2022/05/22 16:35:19;;;;;;;;;;;;;;;22.87;36.23;100193.78;6189221;23;1078;-91
2022/05/22 16:37:45;;;;;;;;;;;;;;;22.56;37.52;100183.56;6189897;23;1249;-91
2022/05/22 16:40:11;;;;;;;;;;;;;;;22.92;36.71;100185.06;6216685;23;944;-91
2022/05/22 16:42:37;;;;;;;;;;;;;;;23.28;36.93;100184.53;6217519;23;857;-90
2022/05/22 16:45:02;;;;;;;;;;;;;;;23.10;37.95;100180.63;6188813;23;1250;-90
2022/05/22 16:53:04;;;;;;;;;;;;;;;22.95;37.10;100176.78;6216338;23;645;-91
2022/05/22 16:55:47;;;;;;;;;;;;;;;22.92;37.11;100171.13;6190012;23;1200;-92
2022/05/22 16:58:31;;;;;;;;;;;;;;;22.88;37.91;100156.31;6215966;23;1288;-92
2022/05/22 17:00:59;;;;;;;;;;;;;;;22.99;38.18;100160.88;6189395;23;1173;-91
2022/05/22 17:03:29;;;;;;;;;;;;;;;22.76;37.45;100164.84;6215422;23;751;-92
2022/05/22 17:05:59;;;;;;;;;;;;;;;22.65;39.04;100159.84;6217499;23;830;-92
2022/05/22 17:08:34;;;;;;;;;;;;;;;23.37;37.36;100165.53;6190538;23;1945;-92
2022/05/22 17:10:59;;;;;;;;;;;;;;;23.16;36.99;100165.16;6191171;23;1394;-91
2022/05/22 17:13:26;;;;;;;;;;;;;;;22.95;36.96;100159.22;6216941;23;1028;-91
2022/05/22 17:15:52;;;;;;;;;;;;;;;22.92;38.55;100157.97;6217092;23;1012;-91
2022/05/22 17:18:20;;;;;;;;;;;;;;;23.28;37.95;100164.97;6190236;23;1207;-91
2022/05/22 17:20:45;;;;;;;;;;;;;;;23.60;37.18;100154.31;6190411;23;1281;-91
2022/05/22 17:23:12;;;;;;;;;;;;;;;23.50;37.22;100152.19;6216736;23;834;-91
2022/05/22 17:25:37;;;;;;;;;;;;;;;23.80;36.65;100149.44;6190446;23;1173;-91
2022/05/22 17:28:04;;;;;;;;;;;;;;;23.44;36.97;100144.47;6217208;23;1889;-91
2022/05/22 17:30:29;;;;;;;;;;;;;;;23.30;37.20;100151.44;6218248;23;849;-91
2022/05/22 17:32:56;;;;;;;;;;;;;;;23.20;38.18;100137.31;6217956;23;837;-90
2022/05/22 17:35:22;;;;;;;;;;;;;;;23.38;37.22;100124.44;6191148;23;1292;-90
2022/05/22 17:37:48;;;;;;;;;;;;;;;23.00;38.10;100115.03;6218194;23;1199;-90
2022/05/22 17:40:24;;;;;;;;;;;;;;;22.44;38.38;100125.97;6217228;23;892;-90
2022/05/22 17:42:50;;;;;;;;;;;;;;;22.50;39.05;100127.28;6219557;23;795;-91
2022/05/22 17:45:15;;;;;;;;;;;;;;;22.88;38.13;100125.63;6218379;23;984;-90
2022/05/22 17:47:40;;;;;;;;;;;;;;;22.85;37.83;100117.97;6217707;23;1885;-91
2022/05/22 17:50:06;;;;;;;;;;;;;;;22.33;39.71;100127.75;6192971;23;1185;-91
2022/05/22 17:52:31;;;;;;;;;;;;;;;22.34;39.72;100129.34;6218688;23;1102;-91
2022/05/22 17:54:58;;;;;;;;;;;;;;;22.09;39.51;100125.25;6191745;23;1291;-90
2022/05/22 17:57:23;;;;;;;;;;;;;;;22.32;38.94;100073.16;6191569;23;1401;-90
2022/05/22 17:59:49;;;;;;;;;;;;;;;22.70;38.91;100116.91;6217900;23;793;-92
2022/05/22 18:02:14;;;;;;;;;;;;;;;22.64;39.05;100115.56;6191952;23;1236;-92
2022/05/22 18:04:40;;;;;;;;;;;;;;;22.33;39.99;100105.44;6190563;23;1227;-92
2022/05/22 18:07:07;;;;;;;;;;;;;;;22.13;39.83;100110.22;6190463;23;1888;-92
2022/05/22 18:09:33;;;;;;;;;;;;;;;21.99;40.77;100112.72;6191062;23;1306;-91
2022/05/22 18:17:37;;;;;;;;;;;;;;;21.90;42.55;100117.66;6137557;23;1195;-91
2022/05/22 18:20:02;;;;;;;;;;;;;;;21.64;41.83;100118.28;6191268;23;1320;-91
2022/05/22 18:22:30;;;;;;;;;;;;;;;21.72;42.71;100114.50;6191654;23;1305;-91
2022/05/22 18:27:44;;;;;;;;;;;;;;;21.36;43.23;100110.09;6218002;23;1916;-91
2022/05/22 18:30:09;;;;;;;;;;;;;;;21.15;46.89;100115.94;6191532;23;1265;-91
2022/05/22 18:32:38;;;;;;;;;;;;;;;21.17;46.94;100118.41;6190888;23;1334;-91
2022/05/22 18:35:14;;;;;;;;;;;;;;;21.11;47.81;100117.00;6191105;23;1216;-91
2022/05/22 21:18:03;;;;;;;;;;;;;;;14.41;65.74;100053.72;6247802;23;1231;-90
2022/05/22 21:20:28;;;;;;;;;;;;;;;14.13;67.47;100046.72;6247886;23;984;-88
2022/05/22 21:34:16;;;;;;;;;;;;;;;14.72;64.48;100057.25;6246862;22;1244;-89
2022/05/22 21:37:00;;;;;;;;;;;;;;;14.32;65.83;100069.34;6219589;23;1306;-90
2022/05/22 21:39:25;;;;;;;;;;;;;;;14.08;66.61;100063.38;6189665;23;1337;-90
2022/05/22 21:45:25;;;;;;;;;;;;;;;13.33;69.30;100058.59;6218261;23;592;-90
2022/05/22 21:47:50;;;;;;;;;;;;;;;13.78;68.68;100059.47;6171764;23;1893;-89
2022/05/22 21:50:20;;;;;;;;;;;;;;;14.33;66.07;100048.94;6190922;23;1489;-90
2022/05/22 21:52:48;;;;;;;;;;;;;;;14.41;65.78;100061.16;6190032;23;1554;-89
2022/05/22 21:55:38;;;;;;;;;;;;;;;14.28;65.97;100054.59;6190327;23;1196;-89
2022/05/22 22:00:58;;;;;;;;;;;;;;;14.26;66.66;100045.84;6217034;23;597;-89
2022/05/22 22:03:23;;;;;;;;;;;;;;;14.07;66.92;100037.78;6215500;23;1367;-88
2022/05/22 22:05:48;;;;;;;;;;;;;;;13.62;67.49;100043.31;6190508;23;1288;-90
2022/05/22 22:08:13;;;;;;;;;;;;;;;13.78;67.50;100048.47;6190065;23;1912;-89
2022/05/22 22:10:38;;;;;;;;;;;;;;;13.75;67.12;100038.88;6190583;23;1259;-90
2022/05/22 22:13:04;;;;;;;;;;;;;;;14.09;65.67;100043.00;6190371;23;1393;-89
2022/05/22 22:15:29;;;;;;;;;;;;;;;14.31;65.03;100045.69;6190653;23;1337;-90
2022/05/22 22:17:54;;;;;;;;;;;;;;;14.01;66.77;100031.63;6216860;23;1261;-90
2022/05/22 22:20:19;;;;;;;;;;;;;;;13.49;67.33;100041.44;6190357;23;1318;-89
2022/05/22 22:22:44;;;;;;;;;;;;;;;13.47;67.21;100026.38;6190396;23;1093;-89
2022/05/22 22:25:10;;;;;;;;;;;;;;;13.09;69.99;100031.34;6189227;23;915;-89
2022/05/22 22:27:35;;;;;;;;;;;;;;;13.23;68.58;100034.91;6216540;23;1876;-90
2022/05/22 22:30:02;;;;;;;;;;;;;;;13.75;66.70;100029.81;6190231;23;1215;-88
2022/05/22 22:32:27;;;;;;;;;;;;;;;13.24;68.42;100022.78;6190258;23;1099;-90
2022/05/22 22:34:52;;;;;;;;;;;;;;;13.79;67.60;100020.63;6189618;23;1253;-90
2022/05/22 22:37:17;;;;;;;;;;;;;;;13.49;68.04;100022.19;6216776;23;1209;-90
2022/05/22 22:39:43;;;;;;;;;;;;;;;13.81;67.33;100021.13;6190377;23;871;-89
2022/05/22 22:42:09;;;;;;;;;;;;;;;13.47;66.76;100023.63;6216664;23;904;-89
2022/05/22 22:44:35;;;;;;;;;;;;;;;13.43;67.25;100019.88;6190048;23;1321;-89
2022/05/22 22:47:00;;;;;;;;;;;;;;;13.27;68.33;100013.13;6189982;23;1274;-88
2022/05/22 22:49:25;;;;;;;;;;;;;;;13.27;67.76;100005.66;6190149;23;1924;-89
2022/05/22 22:51:51;;;;;;;;;;;;;;;12.91;69.08;100013.88;6189888;23;1290;-89
2022/05/22 22:59:44;;;;;;;;;;;;;;;12.77;69.46;100004.81;6216775;23;581;-89
2022/05/22 23:02:11;;;;;;;;;;;;;;;13.16;68.31;99996.03;6189657;23;1311;-89
2022/05/22 23:04:36;;;;;;;;;;;;;;;13.25;67.93;99991.44;6190327;23;1292;-88
2022/05/22 23:07:02;;;;;;;;;;;;;;;13.20;66.96;99992.34;6216330;23;1273;-89
2022/05/22 23:09:28;;;;;;;;;;;;;;;13.12;68.83;99982.06;6189738;23;1881;-89
2022/05/22 23:11:54;;;;;;;;;;;;;;;12.59;70.18;99986.56;6190055;23;1219;-88
2022/05/22 23:14:21;;;;;;;;;;;;;;;12.74;69.24;99978.81;6189771;23;1172;-89
2022/05/22 23:16:46;;;;;;;;;;;;;;;12.40;70.52;99972.94;6189597;23;1291;-88
2022/05/22 23:19:12;;;;;;;;;;;;;;;12.98;68.84;99964.81;6189739;23;1152;-89
2022/05/22 23:21:37;;;;;;;;;;;;;;;13.02;67.74;99962.25;6189643;23;1272;-89
2022/05/22 23:24:02;;;;;;;;;;;;;;;12.71;69.31;99959.38;6215852;23;845;-89
2022/05/22 23:26:27;;;;;;;;;;;;;;;12.26;70.99;99961.94;6216116;23;782;-89
2022/05/22 23:28:53;;;;;;;;;;;;;;;12.57;70.18;99972.31;6189207;23;1922;-88
2022/05/22 23:31:18;;;;;;;;;;;;;;;12.67;69.44;99955.63;6190006;23;1101;-89
2022/05/22 23:33:43;;;;;;;;;;;;;;;12.57;69.44;99947.59;6189203;23;1111;-89
2022/05/22 23:36:16;;;;;;;;;;;;;;;12.64;69.44;99951.56;6216178;23;853;-89
2022/05/22 23:41:25;;;;;;;;;;;;;;;12.16;71.16;99945.69;6216443;23;608;-89
2022/05/22 23:43:50;;;;;;;;;;;;;;;12.25;70.66;99937.56;6189475;23;908;-88
2022/05/22 23:46:15;;;;;;;;;;;;;;;12.34;70.82;99943.94;6216237;23;1040;-88
2022/05/22 23:48:40;;;;;;;;;;;;;;;12.20;71.08;99945.88;6189129;23;1925;-89
2022/05/22 23:51:06;;;;;;;;;;;;;;;12.24;70.65;99950.47;6216209;23;995;-89
2022/05/22 23:53:32;;;;;;;;;;;;;;;11.94;71.97;99945.56;6189468;23;1286;-89
2022/05/22 23:55:57;;;;;;;;;;;;;;;12.32;70.94;99940.72;6215975;23;785;-89
2022/05/22 23:58:24;;;;;;;;;;;;;;;12.05;71.57;99936.03;6189505;23;1200;-88
